Time;durP1;ratioP1;P1;durP2;ratioP2;P2;SDS_P1;SDS_P2;PMS_P1;PMS_P2;Temp;Humidity;BMP_temperature;BMP_pressure;BME280_temperature;BME280_humidity;BME280_pressure;Samples;Min_cycle;Max_cycle;Signal;HPM_P1;HPM_P2
2022/04/03 00:00:53;;;;;;;5.38;2.17;;;;;;;-1.07;74.92;102185.41;2070474;28;42899;-70
2022/04/03 00:01:55;;;;;;;3.40;2.05;;;;;;;-1.14;76.61;102198.22;2071476;28;44566;-71
2022/04/03 00:03:00;;;;;;;4.05;2.15;;;;;;;-1.21;76.31;102190.03;2073097;28;20038;-70
2022/04/03 00:04:02;;;;;;;5.05;2.35;;;;;;;-1.27;76.03;102191.53;2080332;28;44415;-70
2022/04/03 00:05:05;;;;;;;4.75;2.30;;;;;;;-1.35;76.65;102192.06;2079462;28;46736;-70
2022/04/03 00:06:07;;;;;;;3.45;1.98;;;;;;;-1.38;76.81;102193.66;2079857;28;42012;-70
2022/04/03 00:07:10;;;;;;;3.95;2.05;;;;;;;-1.46;76.95;102190.66;2079496;28;43925;-70
2022/04/03 00:08:15;;;;;;;4.35;2.22;;;;;;;-1.51;76.82;102194.78;2071540;28;45692;-69
2022/04/03 00:09:17;;;;;;;3.60;1.58;;;;;;;-1.58;76.53;102188.38;2072491;28;45403;-70
2022/04/03 00:10:19;;;;;;;4.75;1.60;;;;;;;-1.63;76.71;102189.88;2079593;28;45127;-69
2022/04/03 00:11:21;;;;;;;5.15;1.95;;;;;;;-1.68;77.41;102187.88;2080450;28;43269;-70
2022/04/03 00:12:24;;;;;;;2.85;2.10;;;;;;;-1.75;77.94;102189.28;2071701;28;33517;-70
2022/04/03 00:13:26;;;;;;;3.15;1.83;;;;;;;-1.79;77.72;102197.88;2063879;28;43517;-70
2022/04/03 00:14:29;;;;;;;5.32;2.20;;;;;;;-1.88;77.59;102185.19;2073206;28;20034;-70
2022/04/03 00:15:32;;;;;;;3.92;1.67;;;;;;;-1.93;78.49;102189.31;2079158;28;45638;-70
2022/04/03 00:16:35;;;;;;;3.15;2.28;;;;;;;-1.98;78.15;102193.44;2080231;28;44330;-70
2022/04/03 00:17:36;;;;;;;4.00;2.00;;;;;;;-2.01;78.77;102194.22;2080348;28;44294;-70
2022/04/03 00:18:38;;;;;;;2.83;1.50;;;;;;;-2.03;78.21;102190.56;2080996;28;20041;-70
2022/04/03 00:19:40;;;;;;;3.95;2.17;;;;;;;-2.08;78.35;102192.09;2079618;28;43043;-70
2022/04/03 00:20:43;;;;;;;5.93;2.45;;;;;;;-2.13;79.26;102185.72;2080006;28;44521;-70
2022/04/03 00:21:45;;;;;;;5.47;2.38;;;;;;;-2.17;79.03;102189.00;2071923;28;20724;-70
2022/04/03 00:22:50;;;;;;;3.95;2.08;;;;;;;-2.22;78.87;102187.91;2063714;28;46340;-70
2022/04/03 00:23:52;;;;;;;5.38;2.58;;;;;;;-2.26;79.18;102185.94;2073051;28;20162;-70
2022/04/03 00:24:56;;;;;;;2.83;1.73;;;;;;;-2.30;79.04;102184.88;2080518;28;30672;-70
2022/04/03 00:25:58;;;;;;;8.07;2.55;;;;;;;-2.33;79.56;102187.38;2080414;28;20080;-71
2022/04/03 00:27:00;;;;;;;4.28;2.30;;;;;;;-2.35;80.28;102183.75;2071159;28;46249;-70
2022/04/03 00:28:02;;;;;;;5.20;2.67;;;;;;;-2.38;79.87;102178.38;2063525;28;39678;-71
2022/04/03 00:29:04;;;;;;;4.97;2.72;;;;;;;-2.40;80.85;102190.50;2063454;28;46811;-71
2022/04/03 00:30:09;;;;;;;5.85;2.78;;;;;;;-2.42;80.60;102187.81;2072058;28;43263;-71
2022/04/03 00:31:12;;;;;;;5.70;2.42;;;;;;;-2.44;81.10;102183.28;2080100;28;44182;-71
2022/04/03 00:32:14;;;;;;;6.95;2.50;;;;;;;-2.45;81.05;102186.75;2071124;28;46056;-70
2022/04/03 00:33:15;;;;;;;3.78;1.95;;;;;;;-2.48;80.98;102184.84;2072437;28;35367;-71
2022/04/03 00:34:17;;;;;;;3.60;2.20;;;;;;;-2.51;80.91;102187.34;2081299;28;20115;-71
2022/04/03 00:35:20;;;;;;;5.20;2.50;;;;;;;-2.54;81.08;102181.94;2080497;28;44170;-71
2022/04/03 00:36:21;;;;;;;6.22;2.50;;;;;;;-2.58;81.14;102182.63;2080621;28;45127;-71
2022/04/03 00:37:24;;;;;;;6.55;2.50;;;;;;;-2.60;81.25;102177.28;2081268;28;20037;-70
2022/04/03 00:38:26;;;;;;;5.75;2.15;;;;;;;-2.60;81.17;102181.63;2079486;28;32634;-71
2022/04/03 00:39:28;;;;;;;4.03;2.25;;;;;;;-2.64;80.91;102184.91;2080370;28;44224;-71
2022/04/03 00:40:29;;;;;;;5.80;2.67;;;;;;;-2.68;81.11;102186.47;2079965;28;44469;-71
2022/04/03 00:41:34;;;;;;;5.15;2.17;;;;;;;-2.72;81.43;102180.19;2071197;28;44158;-71
2022/04/03 00:42:36;;;;;;;3.65;2.20;;;;;;;-2.74;81.64;102178.31;2063429;28;46041;-71
2022/04/03 00:43:38;;;;;;;4.43;2.03;;;;;;;-2.78;81.52;102177.25;2063936;28;43819;-71
2022/04/03 00:44:40;;;;;;;5.57;2.70;;;;;;;-2.82;81.55;102180.53;2071557;28;45227;-71
2022/04/03 00:45:45;;;;;;;5.95;2.95;;;;;;;-2.84;81.85;102181.28;2080563;28;45122;-71
2022/04/03 00:46:47;;;;;;;5.55;2.42;;;;;;;-2.85;82.04;102175.16;2080203;28;43915;-71
2022/04/03 00:47:56;;;;;;;4.25;2.40;;;;;;;-2.88;81.86;102174.97;2080506;28;44981;-71
2022/04/03 00:49:00;;;;;;;5.85;2.50;;;;;;;-2.93;81.51;102177.34;2081276;28;20045;-71
2022/04/03 00:50:03;;;;;;;5.13;2.53;;;;;;;-2.98;81.81;102184.09;2071275;28;44034;-71
2022/04/03 00:51:04;;;;;;;4.85;2.80;;;;;;;-3.01;82.10;102177.78;2071623;28;44416;-71
2022/04/03 00:52:08;;;;;;;6.20;2.50;;;;;;;-3.01;82.17;102176.06;2081274;28;20057;-71
2022/04/03 00:53:15;;;;;;;5.35;2.65;;;;;;;-3.03;82.28;102174.16;2071872;28;20039;-71
2022/04/03 00:54:17;;;;;;;4.55;2.38;;;;;;;-3.08;82.45;102177.44;2073494;28;20038;-71
2022/04/03 00:55:19;;;;;;;5.15;2.10;;;;;;;-3.10;82.43;102175.59;2080647;28;20038;-70
2022/04/03 00:56:21;;;;;;;6.97;3.25;;;;;;;-3.14;82.30;102177.16;2080019;28;45759;-71
2022/04/03 00:57:29;;;;;;;4.72;3.28;;;;;;;-3.18;82.43;102174.25;2080056;28;45236;-71
2022/04/03 00:58:32;;;;;;;7.53;2.80;;;;;;;-3.22;82.84;102178.44;2081168;28;20042;-71
2022/04/03 00:59:37;;;;;;;5.00;2.13;;;;;;;-3.23;82.74;102176.66;2080571;28;43569;-71
2022/04/03 01:00:39;;;;;;;5.18;2.70;;;;;;;-3.24;83.09;102176.56;2070801;28;20031;-71
2022/04/03 01:01:43;;;;;;;5.75;2.90;;;;;;;-3.30;82.63;102172.81;2063024;28;45210;-71
2022/04/03 01:02:47;;;;;;;3.72;2.20;;;;;;;-3.30;83.05;102174.53;2071642;28;44987;-71
2022/04/03 01:03:49;;;;;;;7.82;2.70;;;;;;;-3.33;82.76;102166.50;2079625;28;41963;-71
2022/04/03 01:04:50;;;;;;;4.13;2.70;;;;;;;-3.36;82.75;102172.47;2080124;28;45654;-71
2022/04/03 01:05:52;;;;;;;5.60;2.78;;;;;;;-3.41;82.86;102171.34;2080151;28;34666;-71
2022/04/03 01:06:56;;;;;;;5.22;2.33;;;;;;;-3.43;82.65;102172.06;2080128;28;44986;-71
2022/04/03 01:08:00;;;;;;;6.00;3.00;;;;;;;-3.48;83.44;102167.47;2079653;28;43435;-70
2022/04/03 01:09:04;;;;;;;5.35;2.95;;;;;;;-3.53;83.00;102170.69;2081067;28;20072;-71
2022/04/03 01:10:07;;;;;;;5.95;2.60;;;;;;;-3.55;83.67;102170.59;2079572;28;44623;-71
2022/04/03 01:11:21;;;;;;;3.65;1.92;;;;;;;-3.57;83.87;102173.91;2080177;28;42728;-71
2022/04/03 01:12:25;;;;;;;3.42;2.50;;;;;;;-3.63;84.04;102171.88;2080693;28;20937;-71
2022/04/03 01:13:53;;;;;;;6.03;2.47;;;;;;;-3.67;83.37;102162.94;2080891;28;20994;-70
2022/04/03 01:14:54;;;;;;;5.78;2.55;;;;;;;-3.70;83.49;102173.25;2071155;28;45161;-70
2022/04/03 01:16:01;;;;;;;4.85;2.13;;;;;;;-3.72;84.01;102166.13;2071971;28;33095;-68
2022/04/03 01:17:05;;;;;;;7.07;2.60;;;;;;;-3.75;84.02;102174.72;2080007;28;44275;-70
2022/04/03 01:18:07;;;;;;;4.70;2.65;;;;;;;-3.79;83.68;102171.84;2070533;28;44768;-69
2022/04/03 01:19:09;;;;;;;5.57;2.88;;;;;;;-3.81;83.63;102166.53;2072442;28;20844;-70
2022/04/03 01:20:12;;;;;;;5.82;2.80;;;;;;;-3.84;84.87;102168.97;2079524;28;45584;-70
2022/04/03 01:21:16;;;;;;;7.57;3.25;;;;;;;-3.80;85.27;102170.97;2080179;28;45974;-70
2022/04/03 01:22:18;;;;;;;3.90;2.42;;;;;;;-3.85;84.70;102170.69;2080367;28;29137;-70
2022/04/03 01:23:25;;;;;;;7.70;2.60;;;;;;;-3.88;84.91;102173.13;2078710;28;43014;-69
2022/04/03 01:24:27;;;;;;;5.65;2.88;;;;;;;-3.90;84.09;102172.16;2079059;28;43532;-70
2022/04/03 01:25:30;;;;;;;5.40;2.70;;;;;;;-3.92;84.50;102168.56;2081848;28;20106;-69
2022/04/03 01:26:33;;;;;;;6.20;3.05;;;;;;;-3.95;85.64;102170.97;2080619;28;21033;-70
2022/04/03 01:27:35;;;;;;;4.45;2.35;;;;;;;-3.95;84.67;102173.59;2080799;28;30490;-69
2022/04/03 01:28:37;;;;;;;6.57;3.05;;;;;;;-3.96;85.78;102171.81;2079762;28;44245;-70
2022/04/03 01:29:38;;;;;;;5.18;2.85;;;;;;;-3.98;85.75;102165.59;2079950;28;44283;-69
2022/04/03 01:30:42;;;;;;;5.38;2.50;;;;;;;-3.99;84.73;102168.13;2079370;28;44103;-69
2022/04/03 01:31:48;;;;;;;6.22;3.05;;;;;;;-4.02;84.78;102166.22;2079704;28;45331;-69
2022/04/03 01:32:50;;;;;;;5.15;3.13;;;;;;;-4.04;84.74;102160.00;2071095;28;44719;-69
2022/04/03 01:33:52;;;;;;;5.70;2.70;;;;;;;-4.03;85.96;102169.69;2072361;28;34817;-69
2022/04/03 01:34:56;;;;;;;6.00;2.78;;;;;;;-4.04;86.15;102170.47;2080479;28;20846;-68
2022/04/03 01:35:57;;;;;;;5.97;2.75;;;;;;;-4.05;85.64;102166.06;2080186;28;45292;-68
2022/04/03 01:37:02;;;;;;;5.68;3.20;;;;;;;-4.07;84.81;102170.31;2079590;28;44920;-68
2022/04/03 01:38:04;;;;;;;5.53;2.60;;;;;;;-4.03;85.14;102167.06;2079659;28;43044;-68
2022/04/03 01:39:10;;;;;;;5.90;2.78;;;;;;;-4.06;85.11;102157.31;2080625;28;20057;-67
2022/04/03 01:40:12;;;;;;;4.53;2.58;;;;;;;-4.08;85.84;102165.88;2079769;28;44624;-67
2022/04/03 01:41:14;;;;;;;4.45;2.40;;;;;;;-4.10;85.73;102165.81;2079541;28;43841;-67
2022/04/03 01:42:16;;;;;;;4.65;2.38;;;;;;;-4.09;86.39;102161.47;2070678;28;46174;-68
2022/04/03 01:43:18;;;;;;;5.97;3.10;;;;;;;-4.14;85.04;102163.84;2072407;28;20467;-67
2022/04/03 01:44:22;;;;;;;4.10;2.50;;;;;;;-4.17;84.58;102157.53;2081442;28;20088;-67
2022/04/03 01:45:24;;;;;;;7.07;2.83;;;;;;;-4.21;84.57;102153.84;2079367;28;46277;-68
2022/04/03 01:46:26;;;;;;;4.35;2.50;;;;;;;-4.23;85.58;102155.47;2070843;28;43040;-68
2022/04/03 01:47:28;;;;;;;5.78;2.47;;;;;;;-4.26;85.39;102156.19;2071107;28;44188;-68
2022/04/03 01:48:30;;;;;;;5.68;2.80;;;;;;;-4.28;86.26;102159.53;2071988;28;20053;-67
2022/04/03 01:49:32;;;;;;;5.55;2.97;;;;;;;-4.29;85.75;102158.66;2071216;28;43762;-67
2022/04/03 01:50:35;;;;;;;5.00;2.83;;;;;;;-4.29;86.18;102153.41;2079286;28;43735;-68
2022/04/03 01:51:37;;;;;;;4.95;2.15;;;;;;;-4.29;86.80;102158.66;2079336;28;44084;-68
2022/04/03 01:52:39;;;;;;;7.15;3.22;;;;;;;-4.32;85.63;102148.00;2080738;28;20049;-67
2022/04/03 01:53:41;;;;;;;5.03;2.70;;;;;;;-4.33;86.32;102155.75;2079027;28;44231;-67
2022/04/03 01:54:42;;;;;;;5.47;2.80;;;;;;;-4.32;86.46;102155.84;2079940;28;44120;-67
2022/04/03 01:55:44;;;;;;;5.22;2.70;;;;;;;-4.33;86.35;102156.66;2070628;28;46368;-67
2022/04/03 01:56:46;;;;;;;6.55;2.60;;;;;;;-4.30;86.46;102153.31;2062943;28;43282;-67
2022/04/03 01:57:48;;;;;;;6.97;2.75;;;;;;;-4.33;86.98;102155.75;2070733;28;43787;-67
2022/04/03 01:58:49;;;;;;;6.90;2.85;;;;;;;-4.33;86.38;102156.66;2079829;28;46201;-67
2022/04/03 01:59:51;;;;;;;5.30;2.75;;;;;;;-4.32;85.62;102155.84;2079359;28;43734;-67
2022/04/03 02:00:53;;;;;;;4.00;2.25;;;;;;;-4.33;85.64;102159.25;2079897;28;44869;-67
2022/04/03 02:01:55;;;;;;;7.70;2.92;;;;;;;-4.32;85.62;102160.19;2079211;28;42972;-66
2022/04/03 02:02:56;;;;;;;4.95;2.65;;;;;;;-4.30;86.50;102153.31;2079599;28;45579;-67
2022/04/03 02:04:00;;;;;;;5.43;2.83;;;;;;;-4.26;86.25;102157.91;2079416;28;46173;-67
2022/04/03 02:05:02;;;;;;;3.30;2.40;;;;;;;-4.25;85.62;102160.63;2079623;28;43749;-67
2022/04/03 02:06:03;;;;;;;5.95;2.65;;;;;;;-4.23;87.07;102158.97;2079342;28;39521;-67
2022/04/03 02:07:06;;;;;;;6.88;3.17;;;;;;;-4.20;86.20;102157.34;2080130;28;42312;-66
2022/04/03 02:08:07;;;;;;;5.15;2.70;;;;;;;-4.17;87.14;102162.75;2070308;28;45517;-68
2022/04/03 02:09:09;;;;;;;5.20;3.00;;;;;;;-4.14;86.78;102155.09;2071410;28;40361;-68
2022/04/03 02:10:12;;;;;;;4.93;2.33;;;;;;;-4.10;86.16;102154.44;2079596;28;44262;-68
2022/04/03 02:11:15;;;;;;;4.60;2.25;;;;;;;-4.08;86.45;102163.28;2079507;28;44268;-67
2022/04/03 02:12:17;;;;;;;6.25;2.33;;;;;;;-4.03;85.86;102156.59;2078931;28;44320;-67
2022/04/03 02:13:21;;;;;;;4.15;2.85;;;;;;;-3.98;86.46;102156.84;2080018;28;38939;-68
2022/04/03 02:14:26;;;;;;;3.60;2.38;;;;;;;-3.95;86.33;102155.28;2079102;28;43741;-67
2022/04/03 02:15:29;;;;;;;3.45;2.15;;;;;;;-3.92;85.24;102147.63;2080512;28;20767;-68
2022/04/03 02:16:31;;;;;;;5.35;3.08;;;;;;;-3.87;86.27;102148.78;2079189;28;43411;-68
2022/04/03 02:17:32;;;;;;;5.47;2.97;;;;;;;-3.77;86.06;102146.66;2079295;28;44743;-67
2022/04/03 02:18:34;;;;;;;7.13;3.25;;;;;;;-3.76;86.58;102151.97;2070324;28;31925;-68
2022/04/03 02:19:36;;;;;;;8.05;2.63;;;;;;;-3.69;86.16;102153.22;2070937;28;44955;-68
2022/04/03 02:20:37;;;;;;;5.70;2.70;;;;;;;-3.69;86.07;102150.63;2079368;28;43261;-68
2022/04/03 02:21:39;;;;;;;4.88;2.08;;;;;;;-3.66;85.18;102149.06;2079837;28;44397;-67
2022/04/03 02:22:41;;;;;;;4.97;2.55;;;;;;;-3.66;85.29;102142.91;2079179;28;42275;-68
2022/04/03 02:23:43;;;;;;;6.40;2.60;;;;;;;-3.64;84.93;102151.78;2079664;28;44302;-68
2022/04/03 02:24:44;;;;;;;5.75;2.55;;;;;;;-3.64;84.94;102146.53;2079597;28;46382;-69
2022/04/03 02:25:49;;;;;;;3.28;2.50;;;;;;;-3.63;84.81;102142.19;2079785;28;42922;-68
2022/04/03 02:26:51;;;;;;;4.65;2.03;;;;;;;-3.61;84.67;102145.78;2079173;28;45453;-67
2022/04/03 02:27:53;;;;;;;5.65;2.53;;;;;;;-3.59;84.87;102144.16;2079204;28;43943;-68
2022/04/03 02:28:54;;;;;;;3.90;2.35;;;;;;;-3.59;84.41;102139.81;2079292;28;45105;-68
2022/04/03 02:29:56;;;;;;;6.68;2.53;;;;;;;-3.58;85.08;102131.16;2079539;28;45789;-68
2022/04/03 02:30:58;;;;;;;4.63;2.25;;;;;;;-3.58;84.99;102135.50;2079176;28;45698;-68
2022/04/03 02:31:59;;;;;;;3.35;2.38;;;;;;;-3.59;84.59;102134.56;2079274;28;45536;-69
2022/04/03 02:33:02;;;;;;;4.40;2.25;;;;;;;-3.59;84.59;102133.69;2079131;28;20049;-68
2022/04/03 02:34:05;;;;;;;6.35;2.90;;;;;;;-3.60;84.54;102137.13;2070603;28;42844;-69
2022/04/03 02:35:11;;;;;;;4.60;2.60;;;;;;;-3.58;84.77;102140.72;2062322;28;45151;-68
2022/04/03 02:36:13;;;;;;;3.80;2.30;;;;;;;-3.60;84.80;102143.25;2071318;28;45544;-68
2022/04/03 02:37:15;;;;;;;4.03;2.20;;;;;;;-3.60;84.33;102142.38;2078617;28;44198;-68
2022/04/03 02:38:18;;;;;;;5.32;3.17;;;;;;;-3.59;84.89;102144.16;2079310;28;46393;-68
2022/04/03 02:39:20;;;;;;;6.95;3.28;;;;;;;-3.59;85.02;102139.81;2079152;28;43182;-68
2022/04/03 02:40:22;;;;;;;4.43;2.40;;;;;;;-3.58;84.22;102141.63;2079665;28;40995;-68
2022/04/03 02:41:24;;;;;;;3.53;2.30;;;;;;;-3.54;85.17;102140.06;2078761;28;44414;-69
2022/04/03 02:42:26;;;;;;;4.05;2.00;;;;;;;-3.54;84.75;102143.56;2079592;28;43693;-68
2022/04/03 02:43:27;;;;;;;4.78;2.03;;;;;;;-3.54;84.53;102138.34;2079179;28;44935;-68
2022/04/03 02:44:29;;;;;;;4.95;2.55;;;;;;;-3.55;84.50;102136.56;2079606;28;44212;-68
2022/04/03 02:45:31;;;;;;;5.22;2.28;;;;;;;-3.53;84.17;102139.25;2080143;28;27140;-68
2022/04/03 02:46:33;;;;;;;4.93;2.67;;;;;;;-3.51;84.14;102133.28;2070707;28;45843;-68
2022/04/03 02:47:34;;;;;;;5.05;2.88;;;;;;;-3.49;84.21;102131.63;2070050;28;44320;-69
2022/04/03 02:48:36;;;;;;;6.63;3.05;;;;;;;-3.47;84.96;102145.69;2079079;28;46528;-68
2022/04/03 02:49:38;;;;;;;3.75;2.25;;;;;;;-3.47;84.80;102135.22;2079407;28;42077;-69
2022/04/03 02:50:39;;;;;;;4.57;1.88;;;;;;;-3.46;84.36;102128.31;2079665;28;43926;-68
2022/04/03 02:51:41;;;;;;;4.15;1.70;;;;;;;-3.44;84.36;102136.25;2079591;28;36633;-68
2022/04/03 02:52:48;;;;;;;4.10;2.20;;;;;;;-3.42;84.28;102137.22;2079539;28;42892;-68
2022/04/03 02:53:50;;;;;;;5.15;2.20;;;;;;;-3.39;84.80;102134.75;2079075;28;44288;-69
2022/04/03 02:54:52;;;;;;;5.15;2.25;;;;;;;-3.36;84.63;102130.56;2079424;28;44803;-68
2022/04/03 02:55:53;;;;;;;4.25;2.80;;;;;;;-3.34;84.93;102135.88;2080116;28;20099;-67
2022/04/03 02:56:55;;;;;;;3.72;2.13;;;;;;;-3.32;84.36;102135.16;2079824;28;33324;-69
2022/04/03 02:57:57;;;;;;;6.72;2.65;;;;;;;-3.30;84.66;102124.78;2078458;28;43816;-69
2022/04/03 02:58:58;;;;;;;4.93;2.30;;;;;;;-3.28;83.99;102131.00;2079488;28;45705;-68
2022/04/03 03:00:00;;;;;;;3.35;1.98;;;;;;;-3.26;84.27;102124.09;2079017;28;44427;-69
2022/04/03 03:01:02;;;;;;;5.70;2.65;;;;;;;-3.24;84.46;102132.94;2079263;28;45320;-68
2022/04/03 03:02:04;;;;;;;5.18;1.92;;;;;;;-3.19;84.32;102125.34;2078944;28;45055;-66
2022/04/03 03:03:07;;;;;;;5.35;2.40;;;;;;;-3.10;84.93;102120.56;2079677;28;42947;-68
2022/04/03 03:04:10;;;;;;;3.25;2.13;;;;;;;-3.08;84.39;102121.56;2079838;28;20046;-68
2022/04/03 03:05:14;;;;;;;4.40;2.42;;;;;;;-3.03;84.35;102117.44;2079498;28;45995;-67
2022/04/03 03:06:15;;;;;;;3.38;2.53;;;;;;;-2.98;84.25;102121.22;2069900;28;45202;-67
2022/04/03 03:07:17;;;;;;;5.20;2.75;;;;;;;-2.90;84.08;102124.22;2070669;28;44769;-68
2022/04/03 03:08:19;;;;;;;4.57;2.80;;;;;;;-2.86;84.11;102133.13;2079155;28;43251;-67
2022/04/03 03:09:23;;;;;;;4.38;2.15;;;;;;;-2.76;83.45;102141.53;2079567;28;45740;-68
2022/04/03 03:10:25;;;;;;;5.85;2.47;;;;;;;-2.72;83.08;102145.22;2079380;28;44267;-69
2022/04/03 03:11:28;;;;;;;4.38;2.35;;;;;;;-2.59;83.66;102131.00;2078988;28;43727;-68
2022/04/03 03:12:30;;;;;;;6.18;2.63;;;;;;;-2.55;83.31;102132.94;2079266;28;41409;-68
2022/04/03 03:13:32;;;;;;;6.15;2.95;;;;;;;-2.52;83.11;102134.00;2080142;28;43024;-69
2022/04/03 03:14:34;;;;;;;4.85;2.90;;;;;;;-2.41;83.06;102137.13;2079200;28;44175;-69
2022/04/03 03:15:35;;;;;;;4.60;2.60;;;;;;;-2.34;83.18;102128.75;2079147;28;45307;-68
2022/04/03 03:16:37;;;;;;;5.65;2.67;;;;;;;-2.26;82.74;102128.22;2079451;28;29756;-69
2022/04/03 03:17:40;;;;;;;4.07;2.70;;;;;;;-2.23;82.80;102138.88;2080071;28;20815;-69
2022/04/03 03:18:42;;;;;;;4.95;2.35;;;;;;;-2.19;83.06;102122.44;2078593;28;44624;-68
2022/04/03 03:19:43;;;;;;;4.78;2.35;;;;;;;-2.17;82.79;102121.72;2079172;28;45468;-69
2022/04/03 03:20:46;;;;;;;6.95;3.03;;;;;;;-2.08;82.52;102113.38;2078706;28;44768;-69
2022/04/03 03:21:48;;;;;;;3.78;2.42;;;;;;;-2.06;82.78;102116.97;2079333;28;34920;-70
2022/04/03 03:22:50;;;;;;;5.43;2.88;;;;;;;-2.03;82.78;102122.34;2070458;28;20038;-68
2022/04/03 03:23:52;;;;;;;5.45;2.17;;;;;;;-2.02;81.85;102107.53;2069787;28;44720;-68
2022/04/03 03:24:54;;;;;;;5.53;2.53;;;;;;;-1.99;82.14;102110.28;2079040;28;43925;-69
2022/04/03 03:25:56;;;;;;;5.72;2.78;;;;;;;-1.95;82.72;102117.50;2078963;28;44233;-69
2022/04/03 03:26:57;;;;;;;6.85;2.80;;;;;;;-1.94;82.72;102121.88;2070152;28;42218;-69
2022/04/03 03:27:59;;;;;;;4.05;2.17;;;;;;;-1.96;81.86;102113.94;2062561;28;35125;-68
2022/04/03 03:29:01;;;;;;;5.93;2.35;;;;;;;-1.92;81.92;102114.97;2070044;28;45769;-68
2022/04/03 03:30:04;;;;;;;5.60;2.53;;;;;;;-1.94;82.20;102112.31;2079164;28;44973;-69
2022/04/03 03:31:06;;;;;;;3.90;2.20;;;;;;;-1.96;81.76;102108.69;2078556;28;46644;-69
2022/04/03 03:32:08;;;;;;;5.57;2.28;;;;;;;-2.00;81.59;102108.50;2079006;28;44477;-68
2022/04/03 03:33:10;;;;;;;4.55;1.98;;;;;;;-2.03;82.66;102106.59;2079034;28;32227;-69
2022/04/03 03:34:12;;;;;;;5.15;2.15;;;;;;;-2.09;82.08;102103.72;2078001;28;46085;-69
2022/04/03 03:35:13;;;;;;;4.65;2.45;;;;;;;-2.12;82.38;102108.78;2075404;28;45267;-69
2022/04/03 03:36:16;;;;;;;6.88;2.13;;;;;;;-2.18;82.04;102106.78;2070488;28;38459;-68
2022/04/03 03:37:20;;;;;;;3.30;2.30;;;;;;;-2.19;82.62;102106.72;2070317;28;44746;-70
2022/04/03 03:38:22;;;;;;;4.28;2.13;;;;;;;-2.20;83.54;102104.94;2070998;28;43863;-70
2022/04/03 03:39:25;;;;;;;4.05;2.28;;;;;;;-2.23;83.27;102103.03;2077954;28;44216;-69
2022/04/03 03:40:28;;;;;;;6.53;2.28;;;;;;;-2.31;82.83;102112.28;2078975;28;42068;-69
2022/04/03 03:41:29;;;;;;;2.47;1.85;;;;;;;-2.38;84.01;102103.22;2069989;28;45632;-69
2022/04/03 03:42:33;;;;;;;3.38;2.22;;;;;;;-2.46;83.32;102101.91;2070702;28;39107;-69
2022/04/03 03:43:36;;;;;;;3.83;2.17;;;;;;;-2.53;83.61;102100.75;2070155;28;44133;-69
2022/04/03 03:44:38;;;;;;;3.45;2.28;;;;;;;-2.56;83.82;102099.69;2070422;28;46370;-68
2022/04/03 03:45:39;;;;;;;4.75;2.90;;;;;;;-2.59;84.39;102095.19;2079230;28;44599;-69
2022/04/03 03:46:43;;;;;;;4.72;2.42;;;;;;;-2.62;84.31;102104.63;2079739;28;20049;-69
2022/04/03 03:47:48;;;;;;;5.55;1.92;;;;;;;-2.70;84.10;102101.63;2079321;28;32851;-70
2022/04/03 03:48:50;;;;;;;4.40;1.92;;;;;;;-2.77;84.08;102104.75;2079248;28;43783;-69
2022/04/03 03:49:52;;;;;;;6.13;2.53;;;;;;;-2.84;84.46;102100.94;2078740;28;45133;-70
2022/04/03 03:50:55;;;;;;;6.70;2.20;;;;;;;-2.90;84.26;102106.75;2080410;28;20041;-70
2022/04/03 03:51:57;;;;;;;4.68;2.17;;;;;;;-2.95;84.46;102103.00;2069610;28;45678;-70
2022/04/03 03:52:59;;;;;;;5.05;2.17;;;;;;;-2.97;84.70;102103.75;2070837;28;44822;-69
2022/04/03 03:54:00;;;;;;;4.75;2.90;;;;;;;-2.97;85.23;102103.75;2079066;28;43154;-69
2022/04/03 03:55:03;;;;;;;5.18;2.58;;;;;;;-3.03;85.29;102106.97;2078236;28;46402;-70
2022/04/03 03:56:04;;;;;;;5.32;2.80;;;;;;;-3.09;85.39;102099.69;2053485;28;42529;-70
2022/04/03 03:57:06;;;;;;;8.05;2.45;;;;;;;-3.09;85.31;102107.56;2046425;28;42956;-70
2022/04/03 03:58:08;;;;;;;3.83;2.10;;;;;;;-3.09;85.58;102107.56;2070381;28;33475;-70
2022/04/03 03:59:10;;;;;;;3.40;2.42;;;;;;;-3.04;86.15;102106.88;2078962;28;43430;-70
2022/04/03 04:00:16;;;;;;;5.05;2.63;;;;;;;-3.05;86.09;102111.25;2061493;28;44377;-70
2022/04/03 04:01:18;;;;;;;6.90;2.40;;;;;;;-3.04;86.29;102101.66;2064234;28;32777;-70
2022/04/03 04:02:20;;;;;;;4.85;2.40;;;;;;;-3.04;85.76;102105.16;2078358;28;45463;-70
2022/04/03 04:03:22;;;;;;;5.20;2.88;;;;;;;-3.03;86.00;102106.06;2078086;28;46575;-70
2022/04/03 04:04:25;;;;;;;4.88;2.00;;;;;;;-3.04;86.04;102107.78;2079470;28;43459;-69
2022/04/03 04:05:26;;;;;;;4.65;2.97;;;;;;;-3.07;85.77;102100.69;2078912;28;44038;-70
2022/04/03 04:06:28;;;;;;;3.55;2.47;;;;;;;-3.08;86.13;102104.09;2079175;28;38312;-69
2022/04/03 04:07:46;;;;;;;4.18;2.25;;;;;;;-3.10;86.07;102107.47;2079444;28;20339;-67
2022/04/03 04:08:47;;;;;;;3.83;2.28;;;;;;;-3.14;86.06;102103.81;2078971;28;44936;-70
2022/04/03 04:09:49;;;;;;;3.83;2.13;;;;;;;-3.17;86.13;102100.13;2079009;28;43005;-67
2022/04/03 04:10:51;;;;;;;4.90;2.40;;;;;;;-3.18;86.20;102101.81;2078535;28;43181;-68
2022/04/03 04:11:52;;;;;;;3.03;2.40;;;;;;;-3.18;86.46;102100.94;2079087;28;45753;-67
2022/04/03 04:12:54;;;;;;;5.68;3.08;;;;;;;-3.21;86.18;102101.69;2079792;28;20042;-69
2022/04/03 04:13:56;;;;;;;3.10;1.90;;;;;;;-3.22;86.77;102102.50;2079019;28;46285;-68
2022/04/03 04:14:58;;;;;;;4.15;2.50;;;;;;;-3.22;86.90;102105.09;2062125;28;36430;-67
2022/04/03 04:16:00;;;;;;;5.65;2.85;;;;;;;-3.22;87.91;102101.59;2062395;28;42901;-68
2022/04/03 04:17:02;;;;;;;4.93;3.00;;;;;;;-3.23;87.63;102098.09;2077611;28;45981;-67
2022/04/03 04:18:03;;;;;;;5.03;2.72;;;;;;;-3.19;88.00;102101.78;2079018;28;45317;-68
2022/04/03 04:19:06;;;;;;;5.63;2.60;;;;;;;-3.22;87.44;102101.59;2078813;28;44949;-68
2022/04/03 04:20:12;;;;;;;3.28;2.33;;;;;;;-3.26;87.52;102100.53;2079151;28;43271;-68
2022/04/03 04:21:15;;;;;;;3.58;2.30;;;;;;;-3.24;87.76;102096.28;2069978;28;44324;-68
2022/04/03 04:22:17;;;;;;;6.28;2.50;;;;;;;-3.25;87.74;102099.69;2053897;28;44023;-68
2022/04/03 04:23:19;;;;;;;4.25;2.25;;;;;;;-3.21;87.33;102100.75;2070168;28;43083;-68
2022/04/03 04:24:21;;;;;;;9.35;2.70;;;;;;;-3.18;87.95;102098.31;2077810;28;45484;-67
2022/04/03 04:25:23;;;;;;;3.85;1.80;;;;;;;-3.15;87.70;102098.47;2070216;28;44503;-68
2022/04/03 04:26:25;;;;;;;7.95;2.80;;;;;;;-3.12;87.62;102102.16;2079026;28;45079;-68
2022/04/03 04:27:27;;;;;;;3.83;2.17;;;;;;;-3.08;87.63;102101.47;2079071;28;20156;-68
2022/04/03 04:28:29;;;;;;;4.38;2.15;;;;;;;-3.04;87.72;102099.91;2079288;28;42931;-67
2022/04/03 04:29:30;;;;;;;2.95;2.13;;;;;;;-3.00;86.96;102095.75;2078737;28;44030;-68
2022/04/03 04:30:32;;;;;;;8.07;2.80;;;;;;;-2.89;87.89;102099.78;2078964;28;44316;-67
2022/04/03 04:31:33;;;;;;;3.53;2.17;;;;;;;-2.91;87.79;102089.25;2078870;28;44121;-68
2022/04/03 04:32:37;;;;;;;5.00;2.30;;;;;;;-2.88;87.92;102086.78;2079754;28;20042;-67
2022/04/03 04:33:38;;;;;;;5.38;3.03;;;;;;;-2.80;87.99;102095.03;2078585;28;45980;-67
2022/04/03 04:34:40;;;;;;;3.67;2.50;;;;;;;-2.71;88.57;102095.50;2078708;28;45243;-67
2022/04/03 04:35:42;;;;;;;3.80;2.83;;;;;;;-2.73;88.03;102091.91;2079214;28;43724;-68
2022/04/03 04:36:44;;;;;;;4.05;2.80;;;;;;;-2.67;87.99;102093.00;2079742;28;43152;-67
2022/04/03 04:37:45;;;;;;;4.65;3.15;;;;;;;-2.58;88.48;102094.38;2079497;28;46020;-67
2022/04/03 04:38:47;;;;;;;4.63;2.33;;;;;;;-2.59;88.03;102092.56;2080085;28;44851;-67
2022/04/03 04:39:49;;;;;;;6.88;3.03;;;;;;;-2.51;88.14;102087.72;2081024;28;20831;-68
2022/04/03 04:40:51;;;;;;;4.05;2.50;;;;;;;-2.49;87.80;102093.94;2080512;28;45784;-67
2022/04/03 04:41:52;;;;;;;3.67;2.13;;;;;;;-2.48;87.22;102098.31;2080084;28;44017;-67
2022/04/03 04:42:55;;;;;;;4.05;2.40;;;;;;;-2.42;87.55;102089.84;2080200;28;44445;-68
2022/04/03 04:43:57;;;;;;;4.65;2.40;;;;;;;-2.41;87.46;102092.56;2080143;28;43614;-68
2022/04/03 04:44:59;;;;;;;4.70;2.05;;;;;;;-2.40;86.95;102097.00;2080158;28;45862;-68
2022/04/03 04:46:00;;;;;;;6.30;2.50;;;;;;;-2.37;87.45;102099.78;2079924;28;44204;-68
2022/04/03 04:47:02;;;;;;;5.07;2.22;;;;;;;-2.38;86.72;102095.34;2078585;28;42542;-68
2022/04/03 04:48:05;;;;;;;4.53;2.15;;;;;;;-2.29;87.40;102100.13;2079804;28;43197;-67
2022/04/03 04:49:06;;;;;;;4.38;2.47;;;;;;;-2.27;87.31;102097.59;2081264;28;20054;-68
2022/04/03 04:50:12;;;;;;;5.32;2.60;;;;;;;-2.25;87.34;102095.94;2079595;28;45344;-68
2022/04/03 04:51:13;;;;;;;6.80;2.10;;;;;;;-2.23;87.29;102096.91;2079724;28;34771;-68